sensor_id;sensor_type;location;lat;lon;timestamp;pressure;altitude;pressure_sealevel;temperature;humidity
55914;BME280;58179;48.776;9.124;2023-03-14T00:00:18;95740.13;;;9.21;100.00
55914;BME280;58179;48.776;9.124;2023-03-14T00:02:44;95738.81;;;9.00;100.00
55914;BME280;58179;48.776;9.124;2023-03-14T00:05:10;95720.78;;;9.07;100.00
55914;BME280;58179;48.776;9.124;2023-03-14T00:07:39;95749.69;;;9.17;100.00
55914;BME280;58179;48.776;9.124;2023-03-14T00:10:07;95752.78;;;9.24;100.00
55914;BME280;58179;48.776;9.124;2023-03-14T00:12:34;95741.25;;;9.39;100.00
55914;BME280;58179;48.776;9.124;2023-03-14T00:15:00;95753.28;;;9.26;100.00
55914;BME280;58179;48.776;9.124;2023-03-14T00:17:28;95729.75;;;9.29;100.00
55914;BME280;58179;48.776;9.124;2023-03-14T00:19:54;95722.44;;;9.21;100.00
55914;BME280;58179;48.776;9.124;2023-03-14T00:22:20;95725.59;;;9.23;100.00
55914;BME280;58179;48.776;9.124;2023-03-14T00:24:47;95713.75;;;9.21;100.00
55914;BME280;58179;48.776;9.124;2023-03-14T00:27:13;95706.59;;;9.21;100.00
55914;BME280;58179;48.776;9.124;2023-03-14T00:29:39;95705.25;;;9.24;100.00
55914;BME280;58179;48.776;9.124;2023-03-14T00:32:05;95716.53;;;9.29;100.00
55914;BME280;58179;48.776;9.124;2023-03-14T00:34:32;95727.03;;;9.35;100.00
55914;BME280;58179;48.776;9.124;2023-03-14T00:36:58;95733.69;;;9.32;100.00
55914;BME280;58179;48.776;9.124;2023-03-14T00:39:24;95732.91;;;9.31;100.00
55914;BME280;58179;48.776;9.124;2023-03-14T00:41:51;95742.38;;;9.32;100.00
55914;BME280;58179;48.776;9.124;2023-03-14T00:44:17;95726.25;;;9.34;100.00
55914;BME280;58179;48.776;9.124;2023-03-14T00:46:43;95721.31;;;9.27;100.00
55914;BME280;58179;48.776;9.124;2023-03-14T00:49:09;95721.03;;;9.29;100.00
55914;BME280;58179;48.776;9.124;2023-03-14T00:51:35;95725.28;;;9.25;100.00
55914;BME280;58179;48.776;9.124;2023-03-14T00:54:01;95731.16;;;9.22;100.00
55914;BME280;58179;48.776;9.124;2023-03-14T00:56:27;95736.44;;;9.22;100.00
55914;BME280;58179;48.776;9.124;2023-03-14T00:58:55;95734.13;;;9.15;100.00
55914;BME280;58179;48.776;9.124;2023-03-14T01:01:22;95742.44;;;9.27;100.00
55914;BME280;58179;48.776;9.124;2023-03-14T01:03:51;95748.22;;;9.29;100.00
55914;BME280;58179;48.776;9.124;2023-03-14T01:06:20;95750.88;;;9.29;100.00
55914;BME280;58179;48.776;9.124;2023-03-14T01:08:46;95762.06;;;9.40;100.00
55914;BME280;58179;48.776;9.124;2023-03-14T01:11:15;95757.38;;;9.37;100.00
55914;BME280;58179;48.776;9.124;2023-03-14T01:13:42;95755.34;;;9.53;100.00
55914;BME280;58179;48.776;9.124;2023-03-14T01:16:12;95748.56;;;9.47;100.00
55914;BME280;58179;48.776;9.124;2023-03-14T01:18:40;95747.09;;;9.36;100.00
55914;BME280;58179;48.776;9.124;2023-03-14T01:21:12;95742.38;;;9.32;100.00
55914;BME280;58179;48.776;9.124;2023-03-14T01:23:39;95737.81;;;9.38;100.00
55914;BME280;58179;48.776;9.124;2023-03-14T01:26:08;95722.47;;;9.40;100.00
55914;BME280;58179;48.776;9.124;2023-03-14T01:28:34;95704.56;;;9.37;100.00
55914;BME280;58179;48.776;9.124;2023-03-14T01:31:03;95701.25;;;9.26;100.00
55914;BME280;58179;48.776;9.124;2023-03-14T01:33:30;95694.19;;;9.22;100.00
55914;BME280;58179;48.776;9.124;2023-03-14T01:35:56;95702.38;;;9.20;100.00
55914;BME280;58179;48.776;9.124;2023-03-14T01:38:22;95685.66;;;9.30;100.00
55914;BME280;58179;48.776;9.124;2023-03-14T01:40:48;95669.22;;;9.14;100.00
55914;BME280;58179;48.776;9.124;2023-03-14T01:43:17;95662.13;;;9.10;100.00
55914;BME280;58179;48.776;9.124;2023-03-14T01:46:30;95652.03;;;9.17;100.00
55914;BME280;58179;48.776;9.124;2023-03-14T01:49:09;95647.03;;;9.15;100.00
55914;BME280;58179;48.776;9.124;2023-03-14T01:51:42;95644.94;;;9.12;100.00
55914;BME280;58179;48.776;9.124;2023-03-14T01:54:16;95661.84;;;9.11;100.00
55914;BME280;58179;48.776;9.124;2023-03-14T01:56:48;95654.50;;;9.08;100.00
55914;BME280;58179;48.776;9.124;2023-03-14T01:59:15;95643.81;;;9.00;100.00
55914;BME280;58179;48.776;9.124;2023-03-14T02:01:44;95645.13;;;8.97;100.00
55914;BME280;58179;48.776;9.124;2023-03-14T02:04:12;95651.44;;;9.01;100.00
55914;BME280;58179;48.776;9.124;2023-03-14T02:06:47;95652.78;;;9.17;100.00
55914;BME280;58179;48.776;9.124;2023-03-14T02:09:14;95652.50;;;9.19;100.00
55914;BME280;58179;48.776;9.124;2023-03-14T02:11:41;95653.16;;;9.11;100.00
55914;BME280;58179;48.776;9.124;2023-03-14T02:14:07;95655.34;;;9.04;100.00
55914;BME280;58179;48.776;9.124;2023-03-14T02:16:39;95648.84;;;8.96;100.00
55914;BME280;58179;48.776;9.124;2023-03-14T02:19:05;95656.56;;;8.92;100.00
55914;BME280;58179;48.776;9.124;2023-03-14T02:21:46;95635.97;;;8.95;100.00
55914;BME280;58179;48.776;9.124;2023-03-14T02:24:20;95647.00;;;8.97;100.00
55914;BME280;58179;48.776;9.124;2023-03-14T02:27:07;95636.56;;;8.86;100.00
55914;BME280;58179;48.776;9.124;2023-03-14T02:29:37;95619.97;;;8.86;100.00
55914;BME280;58179;48.776;9.124;2023-03-14T02:32:05;95605.97;;;8.85;100.00
55914;BME280;58179;48.776;9.124;2023-03-14T02:34:32;95619.09;;;8.90;100.00
55914;BME280;58179;48.776;9.124;2023-03-14T02:37:00;95615.94;;;8.88;100.00
55914;BME280;58179;48.776;9.124;2023-03-14T02:39:33;95616.78;;;9.08;100.00
55914;BME280;58179;48.776;9.124;2023-03-14T02:42:00;95615.41;;;8.91;100.00
55914;BME280;58179;48.776;9.124;2023-03-14T02:44:28;95617.53;;;8.89;100.00
55914;BME280;58179;48.776;9.124;2023-03-14T02:46:53;95597.78;;;8.87;100.00
55914;BME280;58179;48.776;9.124;2023-03-14T02:49:19;95586.72;;;8.85;100.00
55914;BME280;58179;48.776;9.124;2023-03-14T02:51:46;95603.63;;;8.84;100.00
55914;BME280;58179;48.776;9.124;2023-03-14T02:54:13;95582.28;;;8.80;100.00
55914;BME280;58179;48.776;9.124;2023-03-14T02:56:40;95575.81;;;8.91;100.00
55914;BME280;58179;48.776;9.124;2023-03-14T02:59:06;95585.16;;;8.84;100.00
55914;BME280;58179;48.776;9.124;2023-03-14T03:01:34;95562.53;;;8.78;100.00
55914;BME280;58179;48.776;9.124;2023-03-14T03:04:00;95571.41;;;8.87;100.00
55914;BME280;58179;48.776;9.124;2023-03-14T03:06:26;95558.06;;;8.78;100.00
55914;BME280;58179;48.776;9.124;2023-03-14T03:08:52;95564.75;;;8.71;100.00
55914;BME280;58179;48.776;9.124;2023-03-14T03:11:18;95559.88;;;8.59;100.00
55914;BME280;58179;48.776;9.124;2023-03-14T03:13:44;95556.97;;;8.61;100.00
55914;BME280;58179;48.776;9.124;2023-03-14T03:16:10;95544.19;;;8.68;100.00
55914;BME280;58179;48.776;9.124;2023-03-14T03:18:40;95523.38;;;8.66;100.00
55914;BME280;58179;48.776;9.124;2023-03-14T03:21:06;95530.03;;;8.64;100.00
55914;BME280;58179;48.776;9.124;2023-03-14T03:23:34;95532.94;;;8.62;100.00
55914;BME280;58179;48.776;9.124;2023-03-14T03:26:00;95519.84;;;8.76;100.00
55914;BME280;58179;48.776;9.124;2023-03-14T03:28:27;95514.47;;;8.62;100.00
55914;BME280;58179;48.776;9.124;2023-03-14T03:30:53;95521.25;;;8.68;100.00
55914;BME280;58179;48.776;9.124;2023-03-14T03:33:19;95514.06;;;8.74;100.00
55914;BME280;58179;48.776;9.124;2023-03-14T03:35:49;95516.53;;;8.65;100.00
55914;BME280;58179;48.776;9.124;2023-03-14T03:38:15;95508.53;;;8.51;100.00
55914;BME280;58179;48.776;9.124;2023-03-14T03:40:41;95502.72;;;8.54;100.00
55914;BME280;58179;48.776;9.124;2023-03-14T03:43:08;95503.94;;;8.62;100.00
55914;BME280;58179;48.776;9.124;2023-03-14T03:45:34;95489.28;;;8.51;100.00
55914;BME280;58179;48.776;9.124;2023-03-14T03:48:00;95492.78;;;8.46;100.00
55914;BME280;58179;48.776;9.124;2023-03-14T03:50:26;95490.22;;;8.41;100.00
55914;BME280;58179;48.776;9.124;2023-03-14T03:52:53;95486.91;;;8.54;100.00
55914;BME280;58179;48.776;9.124;2023-03-14T03:55:19;95486.19;;;8.49;100.00
55914;BME280;58179;48.776;9.124;2023-03-14T03:57:45;95484.66;;;8.43;100.00
55914;BME280;58179;48.776;9.124;2023-03-14T04:00:12;95491.72;;;8.24;100.00
55914;BME280;58179;48.776;9.124;2023-03-14T04:02:38;95478.84;;;8.22;100.00
55914;BME280;58179;48.776;9.124;2023-03-14T04:05:04;95490.28;;;8.12;100.00
55914;BME280;58179;48.776;9.124;2023-03-14T04:07:31;95476.53;;;8.15;100.00
55914;BME280;58179;48.776;9.124;2023-03-14T04:09:58;95472.50;;;8.23;100.00
55914;BME280;58179;48.776;9.124;2023-03-14T04:12:24;95474.81;;;8.06;100.00
55914;BME280;58179;48.776;9.124;2023-03-14T04:14:50;95473.56;;;7.98;100.00
55914;BME280;58179;48.776;9.124;2023-03-14T04:17:16;95472.94;;;7.83;100.00
55914;BME280;58179;48.776;9.124;2023-03-14T04:19:42;95482.25;;;7.99;100.00
55914;BME280;58179;48.776;9.124;2023-03-14T04:22:08;95468.13;;;7.90;100.00
55914;BME280;58179;48.776;9.124;2023-03-14T04:24:34;95469.44;;;7.92;100.00
55914;BME280;58179;48.776;9.124;2023-03-14T04:27:02;95472.34;;;7.91;100.00
55914;BME280;58179;48.776;9.124;2023-03-14T04:29:28;95471.88;;;8.07;100.00
55914;BME280;58179;48.776;9.124;2023-03-14T04:31:54;95479.59;;;8.04;100.00
55914;BME280;58179;48.776;9.124;2023-03-14T04:34:20;95468.81;;;8.00;100.00
55914;BME280;58179;48.776;9.124;2023-03-14T04:36:45;95464.44;;;7.91;100.00
55914;BME280;58179;48.776;9.124;2023-03-14T04:39:18;95465.50;;;7.90;100.00
55914;BME280;58179;48.776;9.124;2023-03-14T04:41:44;95461.81;;;7.91;100.00
55914;BME280;58179;48.776;9.124;2023-03-14T04:44:12;95456.06;;;7.89;100.00
55914;BME280;58179;48.776;9.124;2023-03-14T04:46:38;95459.50;;;7.84;100.00
55914;BME280;58179;48.776;9.124;2023-03-14T04:49:03;95459.00;;;7.82;100.00
55914;BME280;58179;48.776;9.124;2023-03-14T04:51:29;95446.00;;;7.91;100.00
55914;BME280;58179;48.776;9.124;2023-03-14T04:53:55;95441.31;;;7.88;100.00
55914;BME280;58179;48.776;9.124;2023-03-14T04:56:21;95445.00;;;7.87;100.00
55914;BME280;58179;48.776;9.124;2023-03-14T04:58:47;95442.09;;;7.88;100.00
55914;BME280;58179;48.776;9.124;2023-03-14T05:01:15;95439.66;;;7.92;100.00
55914;BME280;58179;48.776;9.124;2023-03-14T05:03:41;95428.34;;;7.91;100.00
55914;BME280;58179;48.776;9.124;2023-03-14T05:06:07;95434.56;;;7.76;100.00
55914;BME280;58179;48.776;9.124;2023-03-14T05:08:33;95434.22;;;7.83;100.00
55914;BME280;58179;48.776;9.124;2023-03-14T05:10:59;95427.53;;;7.72;100.00
55914;BME280;58179;48.776;9.124;2023-03-14T05:13:25;95422.81;;;7.69;100.00
55914;BME280;58179;48.776;9.124;2023-03-14T05:15:51;95426.16;;;7.74;100.00
55914;BME280;58179;48.776;9.124;2023-03-14T05:18:18;95432.28;;;7.70;100.00
55914;BME280;58179;48.776;9.124;2023-03-14T05:20:44;95425.50;;;7.64;100.00
55914;BME280;58179;48.776;9.124;2023-03-14T05:23:10;95430.31;;;7.81;100.00
55914;BME280;58179;48.776;9.124;2023-03-14T05:25:37;95439.91;;;7.71;100.00
55914;BME280;58179;48.776;9.124;2023-03-14T05:28:03;95431.84;;;7.87;100.00
55914;BME280;58179;48.776;9.124;2023-03-14T05:30:29;95423.50;;;7.80;100.00
55914;BME280;58179;48.776;9.124;2023-03-14T05:32:56;95429.88;;;7.73;100.00
55914;BME280;58179;48.776;9.124;2023-03-14T05:35:23;95422.44;;;7.81;100.00
55914;BME280;58179;48.776;9.124;2023-03-14T05:37:49;95407.41;;;7.81;100.00
55914;BME280;58179;48.776;9.124;2023-03-14T05:40:16;95403.47;;;7.78;100.00
55914;BME280;58179;48.776;9.124;2023-03-14T05:42:41;95400.06;;;7.78;100.00
55914;BME280;58179;48.776;9.124;2023-03-14T05:45:08;95397.66;;;7.58;100.00
55914;BME280;58179;48.776;9.124;2023-03-14T05:47:34;95399.84;;;7.51;100.00
55914;BME280;58179;48.776;9.124;2023-03-14T05:50:00;95410.66;;;7.49;100.00
55914;BME280;58179;48.776;9.124;2023-03-14T05:52:27;95391.09;;;7.55;100.00
55914;BME280;58179;48.776;9.124;2023-03-14T05:54:53;95403.41;;;7.60;100.00
55914;BME280;58179;48.776;9.124;2023-03-14T05:57:19;95397.69;;;7.53;100.00
55914;BME280;58179;48.776;9.124;2023-03-14T05:59:45;95398.44;;;7.58;100.00
55914;BME280;58179;48.776;9.124;2023-03-14T06:02:11;95402.41;;;7.56;100.00
55914;BME280;58179;48.776;9.124;2023-03-14T06:04:37;95395.75;;;7.63;100.00
55914;BME280;58179;48.776;9.124;2023-03-14T06:07:03;95398.31;;;7.45;100.00
55914;BME280;58179;48.776;9.124;2023-03-14T06:09:30;95396.78;;;7.44;100.00
55914;BME280;58179;48.776;9.124;2023-03-14T06:11:56;95399.41;;;7.44;100.00
55914;BME280;58179;48.776;9.124;2023-03-14T06:14:22;95410.72;;;7.44;100.00
55914;BME280;58179;48.776;9.124;2023-03-14T06:16:48;95401.13;;;7.53;100.00
55914;BME280;58179;48.776;9.124;2023-03-14T06:19:14;95398.72;;;7.57;100.00
55914;BME280;58179;48.776;9.124;2023-03-14T06:21:40;95404.25;;;7.55;100.00
55914;BME280;58179;48.776;9.124;2023-03-14T06:24:06;95408.75;;;7.55;100.00
55914;BME280;58179;48.776;9.124;2023-03-14T06:26:34;95405.94;;;7.70;100.00
55914;BME280;58179;48.776;9.124;2023-03-14T06:29:00;95411.00;;;7.66;100.00
55914;BME280;58179;48.776;9.124;2023-03-14T06:31:29;95416.81;;;7.63;100.00
55914;BME280;58179;48.776;9.124;2023-03-14T06:33:55;95409.97;;;7.62;100.00
55914;BME280;58179;48.776;9.124;2023-03-14T06:36:21;95412.34;;;7.64;100.00
55914;BME280;58179;48.776;9.124;2023-03-14T06:38:47;95407.06;;;7.64;100.00
55914;BME280;58179;48.776;9.124;2023-03-14T06:41:13;95405.78;;;7.61;100.00
55914;BME280;58179;48.776;9.124;2023-03-14T06:43:40;95396.09;;;7.57;100.00
55914;BME280;58179;48.776;9.124;2023-03-14T06:46:06;95402.94;;;7.58;100.00
55914;BME280;58179;48.776;9.124;2023-03-14T06:48:32;95402.88;;;7.63;100.00
55914;BME280;58179;48.776;9.124;2023-03-14T06:50:58;95394.91;;;7.68;100.00
55914;BME280;58179;48.776;9.124;2023-03-14T06:53:24;95394.88;;;7.73;100.00
55914;BME280;58179;48.776;9.124;2023-03-14T06:55:50;95396.63;;;7.77;100.00
55914;BME280;58179;48.776;9.124;2023-03-14T06:58:16;95404.00;;;7.81;100.00
55914;BME280;58179;48.776;9.124;2023-03-14T07:00:43;95405.88;;;7.75;100.00
55914;BME280;58179;48.776;9.124;2023-03-14T07:03:10;95408.94;;;7.82;100.00
55914;BME280;58179;48.776;9.124;2023-03-14T07:05:37;95402.34;;;7.85;100.00
55914;BME280;58179;48.776;9.124;2023-03-14T07:08:06;95404.19;;;7.84;100.00
55914;BME280;58179;48.776;9.124;2023-03-14T07:10:31;95413.84;;;7.94;100.00
55914;BME280;58179;48.776;9.124;2023-03-14T07:12:57;95407.44;;;8.00;100.00
55914;BME280;58179;48.776;9.124;2023-03-14T07:15:23;95409.94;;;8.10;100.00
55914;BME280;58179;48.776;9.124;2023-03-14T07:17:51;95416.72;;;8.16;100.00
55914;BME280;58179;48.776;9.124;2023-03-14T07:20:17;95429.84;;;7.97;100.00
55914;BME280;58179;48.776;9.124;2023-03-14T07:22:43;95418.56;;;8.15;100.00
55914;BME280;58179;48.776;9.124;2023-03-14T07:25:09;95415.56;;;8.22;100.00
55914;BME280;58179;48.776;9.124;2023-03-14T07:27:37;95424.09;;;8.38;100.00
55914;BME280;58179;48.776;9.124;2023-03-14T07:30:05;95424.94;;;8.52;100.00
55914;BME280;58179;48.776;9.124;2023-03-14T07:32:32;95428.22;;;8.44;100.00
55914;BME280;58179;48.776;9.124;2023-03-14T07:34:59;95417.41;;;8.64;100.00
55914;BME280;58179;48.776;9.124;2023-03-14T07:37:25;95427.50;;;8.76;100.00
55914;BME280;58179;48.776;9.124;2023-03-14T07:39:51;95440.06;;;9.16;100.00
55914;BME280;58179;48.776;9.124;2023-03-14T07:42:17;95436.34;;;9.17;100.00
55914;BME280;58179;48.776;9.124;2023-03-14T07:44:43;95442.00;;;9.11;100.00
55914;BME280;58179;48.776;9.124;2023-03-14T07:47:09;95443.41;;;9.22;100.00
55914;BME280;58179;48.776;9.124;2023-03-14T07:49:34;95439.16;;;9.40;100.00
55914;BME280;58179;48.776;9.124;2023-03-14T07:52:02;95442.41;;;9.64;100.00
55914;BME280;58179;48.776;9.124;2023-03-14T07:54:28;95441.66;;;9.77;100.00
55914;BME280;58179;48.776;9.124;2023-03-14T07:56:54;95429.19;;;9.64;100.00
55914;BME280;58179;48.776;9.124;2023-03-14T07:59:20;95443.00;;;9.75;100.00
55914;BME280;58179;48.776;9.124;2023-03-14T08:01:46;95438.13;;;9.68;100.00
55914;BME280;58179;48.776;9.124;2023-03-14T08:04:18;95433.78;;;9.58;100.00
55914;BME280;58179;48.776;9.124;2023-03-14T08:06:44;95420.69;;;9.53;100.00
55914;BME280;58179;48.776;9.124;2023-03-14T08:09:11;95416.28;;;9.76;100.00
55914;BME280;58179;48.776;9.124;2023-03-14T08:11:37;95435.06;;;10.02;100.00
55914;BME280;58179;48.776;9.124;2023-03-14T08:14:03;95447.03;;;9.99;100.00
55914;BME280;58179;48.776;9.124;2023-03-14T08:16:29;95439.78;;;10.19;100.00
55914;BME280;58179;48.776;9.124;2023-03-14T08:18:55;95435.38;;;10.14;100.00
55914;BME280;58179;48.776;9.124;2023-03-14T08:21:21;95426.66;;;10.00;100.00
55914;BME280;58179;48.776;9.124;2023-03-14T08:23:47;95424.59;;;9.97;100.00
55914;BME280;58179;48.776;9.124;2023-03-14T08:26:15;95436.63;;;10.17;100.00
55914;BME280;58179;48.776;9.124;2023-03-14T08:28:46;95426.53;;;10.32;100.00
55914;BME280;58179;48.776;9.124;2023-03-14T08:31:12;95417.34;;;10.43;100.00
55914;BME280;58179;48.776;9.124;2023-03-14T08:33:38;95414.84;;;10.47;100.00
55914;BME280;58179;48.776;9.124;2023-03-14T08:36:05;95404.09;;;10.43;100.00
55914;BME280;58179;48.776;9.124;2023-03-14T08:38:31;95416.22;;;10.58;100.00
55914;BME280;58179;48.776;9.124;2023-03-14T08:40:59;95421.22;;;10.46;100.00
55914;BME280;58179;48.776;9.124;2023-03-14T08:43:27;95420.69;;;10.35;100.00
55914;BME280;58179;48.776;9.124;2023-03-14T08:45:53;95424.91;;;10.36;100.00
55914;BME280;58179;48.776;9.124;2023-03-14T08:48:19;95437.44;;;10.17;100.00
55914;BME280;58179;48.776;9.124;2023-03-14T08:50:45;95438.09;;;10.09;100.00
55914;BME280;58179;48.776;9.124;2023-03-14T08:53:11;95420.88;;;10.12;100.00
55914;BME280;58179;48.776;9.124;2023-03-14T08:55:37;95423.69;;;10.42;100.00
55914;BME280;58179;48.776;9.124;2023-03-14T08:58:03;95439.13;;;10.63;100.00
55914;BME280;58179;48.776;9.124;2023-03-14T09:00:30;95445.16;;;10.77;100.00
55914;BME280;58179;48.776;9.124;2023-03-14T09:02:56;95447.63;;;10.73;100.00
55914;BME280;58179;48.776;9.124;2023-03-14T09:05:22;95446.72;;;10.78;100.00
55914;BME280;58179;48.776;9.124;2023-03-14T09:07:50;95470.13;;;11.07;100.00
55914;BME280;58179;48.776;9.124;2023-03-14T09:10:16;95460.69;;;10.92;100.00
55914;BME280;58179;48.776;9.124;2023-03-14T09:12:42;95455.16;;;10.80;100.00
55914;BME280;58179;48.776;9.124;2023-03-14T09:15:09;95470.03;;;10.76;100.00
55914;BME280;58179;48.776;9.124;2023-03-14T09:17:37;95476.41;;;11.11;100.00
55914;BME280;58179;48.776;9.124;2023-03-14T09:20:03;95494.09;;;11.24;100.00
55914;BME280;58179;48.776;9.124;2023-03-14T09:22:33;95486.56;;;11.40;100.00
55914;BME280;58179;48.776;9.124;2023-03-14T09:25:01;95494.75;;;11.52;100.00
55914;BME280;58179;48.776;9.124;2023-03-14T09:27:27;95491.88;;;11.93;100.00
55914;BME280;58179;48.776;9.124;2023-03-14T09:29:59;95492.38;;;11.95;100.00
55914;BME280;58179;48.776;9.124;2023-03-14T09:32:30;95490.72;;;11.77;100.00
55914;BME280;58179;48.776;9.124;2023-03-14T09:34:58;95510.31;;;11.98;100.00
55914;BME280;58179;48.776;9.124;2023-03-14T09:37:24;95499.38;;;11.69;100.00
55914;BME280;58179;48.776;9.124;2023-03-14T09:39:50;95501.38;;;11.63;100.00
55914;BME280;58179;48.776;9.124;2023-03-14T09:42:22;95502.63;;;11.43;100.00
55914;BME280;58179;48.776;9.124;2023-03-14T09:44:54;95514.50;;;11.46;100.00
55914;BME280;58179;48.776;9.124;2023-03-14T09:47:23;95525.41;;;11.44;100.00
55914;BME280;58179;48.776;9.124;2023-03-14T09:49:51;95509.06;;;11.51;100.00
55914;BME280;58179;48.776;9.124;2023-03-14T09:52:23;95512.28;;;11.39;100.00
55914;BME280;58179;48.776;9.124;2023-03-14T09:54:52;95507.06;;;11.25;100.00
55914;BME280;58179;48.776;9.124;2023-03-14T09:57:23;95508.63;;;11.27;100.00
55914;BME280;58179;48.776;9.124;2023-03-14T09:59:51;95500.72;;;11.13;100.00
55914;BME280;58179;48.776;9.124;2023-03-14T10:02:20;95491.16;;;11.03;100.00
55914;BME280;58179;48.776;9.124;2023-03-14T10:04:49;95489.72;;;10.97;100.00
55914;BME280;58179;48.776;9.124;2023-03-14T10:07:17;95489.28;;;11.04;100.00
55914;BME280;58179;48.776;9.124;2023-03-14T10:09:49;95482.66;;;11.37;100.00
55914;BME280;58179;48.776;9.124;2023-03-14T10:12:16;95469.44;;;11.99;100.00
55914;BME280;58179;48.776;9.124;2023-03-14T10:14:48;95463.56;;;12.76;100.00
55914;BME280;58179;48.776;9.124;2023-03-14T10:17:15;95462.97;;;13.22;100.00
55914;BME280;58179;48.776;9.124;2023-03-14T10:19:54;95479.31;;;13.50;100.00
55914;BME280;58179;48.776;9.124;2023-03-14T10:22:23;95459.19;;;13.95;100.00
55914;BME280;58179;48.776;9.124;2023-03-14T10:24:55;95461.34;;;14.31;100.00
55914;BME280;58179;48.776;9.124;2023-03-14T10:27:29;95479.94;;;14.11;100.00
55914;BME280;58179;48.776;9.124;2023-03-14T10:29:57;95461.38;;;13.85;100.00
55914;BME280;58179;48.776;9.124;2023-03-14T10:32:31;95477.78;;;13.23;100.00
55914;BME280;58179;48.776;9.124;2023-03-14T10:35:22;95483.09;;;12.97;100.00
55914;BME280;58179;48.776;9.124;2023-03-14T10:37:52;95455.72;;;12.79;100.00
55914;BME280;58179;48.776;9.124;2023-03-14T10:40:26;95472.31;;;12.85;100.00
55914;BME280;58179;48.776;9.124;2023-03-14T10:42:53;95469.34;;;13.04;100.00
55914;BME280;58179;48.776;9.124;2023-03-14T10:45:33;95464.19;;;13.33;100.00
55914;BME280;58179;48.776;9.124;2023-03-14T10:48:16;95477.94;;;13.44;100.00
55914;BME280;58179;48.776;9.124;2023-03-14T10:50:53;95477.91;;;13.52;100.00
55914;BME280;58179;48.776;9.124;2023-03-14T10:53:20;95474.97;;;13.20;100.00
55914;BME280;58179;48.776;9.124;2023-03-14T10:55:50;95485.75;;;13.06;100.00
55914;BME280;58179;48.776;9.124;2023-03-14T10:58:23;95468.25;;;12.70;100.00
55914;BME280;58179;48.776;9.124;2023-03-14T11:00:57;95488.00;;;12.38;100.00
55914;BME280;58179;48.776;9.124;2023-03-14T11:03:25;95486.56;;;12.24;100.00
55914;BME280;58179;48.776;9.124;2023-03-14T11:05:57;95494.38;;;11.67;100.00
55914;BME280;58179;48.776;9.124;2023-03-14T11:08:29;95498.19;;;11.52;100.00
55914;BME280;58179;48.776;9.124;2023-03-14T11:11:10;95494.31;;;11.28;100.00
55914;BME280;58179;48.776;9.124;2023-03-14T11:13:44;95508.78;;;11.08;100.00
55914;BME280;58179;48.776;9.124;2023-03-14T11:16:20;95507.91;;;10.99;100.00
55914;BME280;58179;48.776;9.124;2023-03-14T11:19:03;95509.41;;;10.91;100.00
55914;BME280;58179;48.776;9.124;2023-03-14T11:21:42;95512.19;;;10.86;100.00
55914;BME280;58179;48.776;9.124;2023-03-14T11:24:31;95519.06;;;10.73;100.00
55914;BME280;58179;48.776;9.124;2023-03-14T11:27:09;95513.72;;;10.51;100.00
55914;BME280;58179;48.776;9.124;2023-03-14T11:29:41;95516.78;;;10.44;100.00
55914;BME280;58179;48.776;9.124;2023-03-14T11:32:17;95511.38;;;10.22;100.00
55914;BME280;58179;48.776;9.124;2023-03-14T11:34:51;95514.56;;;10.05;100.00
55914;BME280;58179;48.776;9.124;2023-03-14T11:37:23;95519.13;;;10.19;100.00
55914;BME280;58179;48.776;9.124;2023-03-14T11:39:59;95526.38;;;10.27;100.00
55914;BME280;58179;48.776;9.124;2023-03-14T11:42:33;95522.81;;;10.31;100.00
55914;BME280;58179;48.776;9.124;2023-03-14T11:45:00;95527.91;;;10.14;100.00
55914;BME280;58179;48.776;9.124;2023-03-14T11:47:29;95526.50;;;10.03;100.00
55914;BME280;58179;48.776;9.124;2023-03-14T11:50:02;95551.06;;;9.90;100.00
55914;BME280;58179;48.776;9.124;2023-03-14T11:52:34;95534.44;;;10.03;100.00
55914;BME280;58179;48.776;9.124;2023-03-14T11:55:07;95539.94;;;10.06;100.00
55914;BME280;58179;48.776;9.124;2023-03-14T11:57:40;95558.34;;;9.98;100.00
55914;BME280;58179;48.776;9.124;2023-03-14T12:00:16;95553.25;;;10.15;100.00
55914;BME280;58179;48.776;9.124;2023-03-14T12:02:50;95557.47;;;10.16;100.00
55914;BME280;58179;48.776;9.124;2023-03-14T12:05:31;95566.13;;;10.49;100.00
55914;BME280;58179;48.776;9.124;2023-03-14T12:08:37;95583.06;;;10.48;100.00
55914;BME280;58179;48.776;9.124;2023-03-14T12:11:30;95576.72;;;10.35;100.00
55914;BME280;58179;48.776;9.124;2023-03-14T12:14:00;95594.34;;;10.26;100.00
55914;BME280;58179;48.776;9.124;2023-03-14T12:16:38;95615.50;;;10.07;100.00
55914;BME280;58179;48.776;9.124;2023-03-14T12:19:24;95622.59;;;10.12;100.00
55914;BME280;58179;48.776;9.124;2023-03-14T12:21:56;95612.16;;;10.21;100.00
55914;BME280;58179;48.776;9.124;2023-03-14T12:24:27;95636.94;;;10.38;100.00
55914;BME280;58179;48.776;9.124;2023-03-14T12:26:55;95642.28;;;10.79;100.00
55914;BME280;58179;48.776;9.124;2023-03-14T12:29:23;95689.50;;;11.00;100.00
55914;BME280;58179;48.776;9.124;2023-03-14T12:32:07;95668.94;;;11.10;100.00
55914;BME280;58179;48.776;9.124;2023-03-14T12:34:34;95679.59;;;11.05;100.00
55914;BME280;58179;48.776;9.124;2023-03-14T12:37:19;95725.00;;;10.99;100.00
55914;BME280;58179;48.776;9.124;2023-03-14T12:39:59;95703.53;;;11.14;100.00
55914;BME280;58179;48.776;9.124;2023-03-14T12:42:42;95717.06;;;10.99;100.00
55914;BME280;58179;48.776;9.124;2023-03-14T12:45:27;95703.13;;;11.34;100.00
55914;BME280;58179;48.776;9.124;2023-03-14T12:48:11;95719.53;;;11.86;100.00
55914;BME280;58179;48.776;9.124;2023-03-14T12:50:45;95711.06;;;12.20;100.00
55914;BME280;58179;48.776;9.124;2023-03-14T12:54:14;95736.81;;;13.03;100.00
55914;BME280;58179;48.776;9.124;2023-03-14T12:56:58;95758.91;;;13.52;100.00
55914;BME280;58179;48.776;9.124;2023-03-14T12:59:32;95749.66;;;13.49;100.00
55914;BME280;58179;48.776;9.124;2023-03-14T13:02:23;95761.91;;;12.89;100.00
55914;BME280;58179;48.776;9.124;2023-03-14T13:04:52;95767.94;;;12.80;100.00
55914;BME280;58179;48.776;9.124;2023-03-14T13:08:03;95777.34;;;12.87;100.00